createdAt,value
2017-11-19T00:01:18.620Z,101051.48
2017-11-19T00:03:51.267Z,101050.78
2017-11-19T00:06:24.826Z,101056.91
2017-11-19T00:08:57.537Z,101057.23
2017-11-19T00:11:29.804Z,101044.48
2017-11-19T00:14:00.460Z,101045.89
2017-11-19T00:16:33.624Z,101045.47
2017-11-19T00:19:05.527Z,101047.08
2017-11-19T00:21:37.519Z,101048.77
2017-11-19T00:24:13.930Z,101050.70
2017-11-19T00:26:45.535Z,101052.39
2017-11-19T00:29:18.535Z,101056.49
2017-11-19T00:31:51.168Z,101053.59
2017-11-19T00:34:23.966Z,101051.80
2017-11-19T00:36:56.340Z,101044.20
2017-11-19T00:39:32.410Z,101056.05
2017-11-19T00:42:04.312Z,101057.91
2017-11-19T00:47:16.459Z,101077.03
2017-11-19T00:49:55.248Z,101069.29
2017-11-19T00:52:27.523Z,101081.00
2017-11-19T00:54:58.452Z,101066.14
2017-11-19T00:57:28.717Z,101064.87
2017-11-19T01:00:01.121Z,101061.34
2017-11-19T01:02:44.830Z,101059.09
2017-11-19T01:05:23.029Z,101051.48
2017-11-19T01:07:57.720Z,101053.56
2017-11-19T01:10:31.424Z,101053.25
2017-11-19T01:13:05.437Z,101064.27
2017-11-19T01:15:37.928Z,101064.09
2017-11-19T01:18:10.742Z,101067.68
2017-11-19T01:20:44.430Z,101070.74
2017-11-19T01:23:16.631Z,101077.55
2017-11-19T01:25:50.927Z,101076.31
2017-11-19T01:28:24.132Z,101070.62
2017-11-19T01:30:59.835Z,101061.64
2017-11-19T01:33:33.231Z,101060.69
2017-11-19T01:36:05.338Z,101062.97
2017-11-19T01:38:37.047Z,101068.97
2017-11-19T01:41:09.750Z,101069.70
2017-11-19T01:43:42.187Z,101077.77
2017-11-19T01:46:15.452Z,101066.08
2017-11-19T01:48:48.276Z,101074.91
2017-11-19T01:51:20.680Z,101077.93
2017-11-19T01:53:52.770Z,101079.87
2017-11-19T01:56:25.274Z,101067.00
2017-11-19T01:58:57.482Z,101085.63
2017-11-19T02:01:29.383Z,101081.80
2017-11-19T02:04:02.787Z,101076.36
2017-11-19T02:06:35.093Z,101079.00
2017-11-19T02:09:07.293Z,101083.89
2017-11-19T02:11:39.199Z,101080.16
2017-11-19T02:14:14.481Z,101080.09
2017-11-19T02:16:51.778Z,101080.35
2017-11-19T02:19:23.916Z,101073.78
2017-11-19T02:21:55.484Z,101085.15
2017-11-19T02:24:27.569Z,101081.97
2017-11-19T02:26:59.477Z,101078.58
2017-11-19T02:29:30.986Z,101082.65
2017-11-19T02:32:04.266Z,101083.16
2017-11-19T02:34:34.822Z,101077.72
2017-11-19T02:37:09.906Z,101079.58
2017-11-19T02:39:42.630Z,101074.77
2017-11-19T02:42:16.132Z,101073.50
2017-11-19T02:44:53.070Z,101083.56
2017-11-19T02:47:26.698Z,101085.52
2017-11-19T02:50:01.110Z,101089.21
2017-11-19T02:52:36.770Z,101084.36
2017-11-19T02:55:07.999Z,101089.29
2017-11-19T02:57:40.529Z,101091.65
2017-11-19T03:00:20.859Z,101083.98
2017-11-19T03:02:52.954Z,101087.33
2017-11-19T03:05:34.657Z,101088.14
2017-11-19T03:08:07.955Z,101094.02
2017-11-19T03:13:22.066Z,101091.02
2017-11-19T03:15:55.654Z,101079.73
2017-11-19T03:18:27.160Z,101082.06
2017-11-19T03:21:00.378Z,101090.44
2017-11-19T03:23:36.903Z,101088.73
2017-11-19T03:26:08.327Z,101086.75
2017-11-19T03:28:39.735Z,101093.04
2017-11-19T03:31:12.707Z,101080.41
2017-11-19T03:33:44.735Z,101080.08
2017-11-19T03:36:15.352Z,101079.05
2017-11-19T03:38:46.430Z,101080.12
2017-11-19T03:41:18.513Z,101085.30
2017-11-19T03:43:50.025Z,101080.23
2017-11-19T03:46:21.825Z,101079.56
2017-11-19T03:48:53.740Z,101090.60
2017-11-19T03:51:25.440Z,101084.22
2017-11-19T03:54:03.729Z,101093.88
2017-11-19T03:56:35.335Z,101098.27
2017-11-19T03:59:07.329Z,101096.44
2017-11-19T04:01:44.542Z,101101.73
2017-11-19T04:04:16.224Z,101101.06
2017-11-19T04:06:48.427Z,101108.36
2017-11-19T04:09:20.341Z,101099.47
2017-11-19T04:11:53.455Z,101102.97
2017-11-19T04:14:25.440Z,101099.84
2017-11-19T04:19:34.892Z,101101.49
2017-11-19T04:22:11.471Z,101107.79
2017-11-19T04:24:55.239Z,101111.53
2017-11-19T04:27:28.746Z,101113.77
2017-11-19T04:30:04.081Z,101120.48
2017-11-19T04:32:34.927Z,101118.86
2017-11-19T04:35:10.364Z,101110.77
2017-11-19T04:37:42.274Z,101113.66
2017-11-19T04:40:16.089Z,101120.23
2017-11-19T04:42:47.883Z,101117.86
2017-11-19T04:45:20.694Z,101115.78
2017-11-19T04:47:53.300Z,101117.52
2017-11-19T04:50:25.901Z,101114.63
2017-11-19T04:52:59.603Z,101115.58
2017-11-19T04:55:32.900Z,101117.00
2017-11-19T04:58:04.513Z,101130.83
2017-11-19T05:00:36.819Z,101127.55
2017-11-19T05:03:08.970Z,101125.27
2017-11-19T05:05:41.459Z,101123.98
2017-11-19T05:08:12.961Z,101126.06
2017-11-19T05:10:45.541Z,101130.56
2017-11-19T05:13:17.432Z,101130.09
2017-11-19T05:15:50.029Z,101133.36
2017-11-19T05:18:21.912Z,101131.38
2017-11-19T05:20:53.615Z,101131.57
2017-11-19T05:23:25.416Z,101127.16
2017-11-19T05:25:57.309Z,101128.66
2017-11-19T05:28:29.403Z,101133.58
2017-11-19T05:31:03.003Z,101134.95
2017-11-19T05:33:34.709Z,101141.02
2017-11-19T05:36:06.504Z,101140.45
2017-11-19T05:38:39.888Z,101143.34
2017-11-19T05:41:11.782Z,101148.44
2017-11-19T05:43:43.998Z,101143.52
2017-11-19T05:46:18.089Z,101141.39
2017-11-19T05:48:52.089Z,101152.23
2017-11-19T05:51:23.593Z,101147.54
2017-11-19T05:53:55.876Z,101157.97
2017-11-19T05:56:27.486Z,101150.77
2017-11-19T05:59:00.005Z,101157.91
2017-11-19T06:01:32.080Z,101154.98
2017-11-19T06:04:07.431Z,101153.04
2017-11-19T06:06:41.105Z,101148.81
2017-11-19T06:09:13.198Z,101151.61
2017-11-19T06:11:45.521Z,101152.33
2017-11-19T06:14:17.345Z,101158.53
2017-11-19T06:16:50.524Z,101158.19
2017-11-19T06:19:20.837Z,101175.23
2017-11-19T06:21:50.900Z,101179.55
2017-11-19T06:24:21.457Z,101185.95
2017-11-19T06:26:52.881Z,101188.35
2017-11-19T06:29:23.109Z,101190.95
2017-11-19T06:31:56.406Z,101181.92
2017-11-19T06:34:29.007Z,101197.08
2017-11-19T06:37:01.014Z,101188.30
2017-11-19T06:39:40.128Z,101185.92
2017-11-19T06:42:12.024Z,101197.67
2017-11-19T06:44:45.014Z,101196.09
2017-11-19T06:47:18.284Z,101196.14
2017-11-19T06:49:50.386Z,101204.45
2017-11-19T06:52:24.276Z,101201.23
2017-11-19T06:54:57.075Z,101213.16
2017-11-19T06:57:29.472Z,101224.19
2017-11-19T07:02:39.909Z,101213.64
2017-11-19T07:05:11.798Z,101212.41
2017-11-19T07:07:48.423Z,101216.58
2017-11-19T07:10:20.497Z,101215.69
2017-11-19T07:12:52.240Z,101220.98
2017-11-19T07:15:46.220Z,101209.14
2017-11-19T07:18:18.835Z,101214.66
2017-11-19T07:20:50.879Z,101213.15
2017-11-19T07:23:24.528Z,101219.91
2017-11-19T07:25:58.886Z,101221.41
2017-11-19T07:28:30.956Z,101225.42
2017-11-19T07:31:04.832Z,101215.52
2017-11-19T07:36:19.634Z,101226.05
2017-11-19T07:38:53.910Z,101225.80
2017-11-19T07:41:26.513Z,101233.00
2017-11-19T07:44:01.105Z,101228.05
2017-11-19T07:46:33.737Z,101232.46
2017-11-19T07:49:07.330Z,101241.95
2017-11-19T07:51:42.611Z,101234.58
2017-11-19T07:54:17.138Z,101245.61
2017-11-19T07:56:49.618Z,101239.88
2017-11-19T07:59:21.402Z,101244.64
2017-11-19T08:01:53.698Z,101247.07
2017-11-19T08:04:26.003Z,101255.60
2017-11-19T08:07:00.215Z,101257.19
2017-11-19T08:09:32.708Z,101250.38
2017-11-19T08:12:04.624Z,101254.67
2017-11-19T08:14:36.714Z,101233.74
2017-11-19T08:17:11.818Z,101250.76
2017-11-19T08:22:24.414Z,101273.98
2017-11-19T08:24:55.933Z,101264.55
2017-11-19T08:27:28.141Z,101274.44
2017-11-19T08:30:01.140Z,101269.68
2017-11-19T08:32:35.440Z,101268.61
2017-11-19T08:35:07.350Z,101258.34
2017-11-19T08:37:47.641Z,101276.47
2017-11-19T08:40:19.570Z,101274.92
2017-11-19T08:42:51.659Z,101272.69
2017-11-19T08:45:23.953Z,101238.02
2017-11-19T08:47:56.464Z,101281.05
2017-11-19T08:50:28.358Z,101274.43
2017-11-19T08:53:00.750Z,101286.00
2017-11-19T08:55:33.751Z,101276.84
2017-11-19T08:58:05.763Z,101280.30
2017-11-19T09:00:38.949Z,101278.77
2017-11-19T09:03:14.046Z,101287.56
2017-11-19T09:05:49.777Z,101295.27
2017-11-19T09:08:23.152Z,101300.81
2017-11-19T09:10:55.673Z,101296.90
2017-11-19T09:13:28.666Z,101287.38
2017-11-19T09:16:03.257Z,101293.93
2017-11-19T09:18:34.954Z,101286.19
2017-11-19T09:21:07.347Z,101293.78
2017-11-19T09:23:37.957Z,101290.06
2017-11-19T09:26:10.555Z,101303.92
2017-11-19T09:28:44.352Z,101304.16
2017-11-19T09:31:20.746Z,101303.77
2017-11-19T09:33:52.745Z,101315.97
2017-11-19T09:39:14.865Z,101303.48
2017-11-19T09:41:48.536Z,101307.94
2017-11-19T09:44:21.051Z,101301.40
2017-11-19T09:46:53.543Z,101307.05
2017-11-19T09:49:26.763Z,101318.00
2017-11-19T09:52:00.957Z,101315.52
2017-11-19T09:54:32.605Z,101311.32
2017-11-19T09:57:05.093Z,101314.27
2017-11-19T09:59:37.385Z,101314.98
2017-11-19T10:02:08.090Z,101324.28
2017-11-19T10:04:49.238Z,101325.06
2017-11-19T10:07:26.527Z,101329.27
2017-11-19T10:10:03.101Z,101323.33
2017-11-19T10:12:34.348Z,101332.34
2017-11-19T10:15:20.324Z,101336.20
2017-11-19T10:17:52.591Z,101337.28
2017-11-19T10:20:26.377Z,101339.02
2017-11-19T10:23:02.016Z,101332.47
2017-11-19T10:25:35.393Z,101330.39
2017-11-19T10:28:11.397Z,101331.64
2017-11-19T10:30:45.883Z,101333.12
2017-11-19T10:33:20.988Z,101339.28
2017-11-19T10:35:55.197Z,101336.39
2017-11-19T10:38:28.792Z,101340.02
2017-11-19T10:41:01.521Z,101328.11
2017-11-19T10:43:35.299Z,101336.54
2017-11-19T10:46:10.911Z,101330.52
2017-11-19T10:48:44.381Z,101339.80
2017-11-19T10:51:19.325Z,101337.12
2017-11-19T10:53:53.332Z,101330.86
2017-11-19T10:56:28.619Z,101333.68
2017-11-19T10:59:02.786Z,101327.38
2017-11-19T11:01:37.713Z,101330.41
2017-11-19T11:04:11.832Z,101331.94
2017-11-19T11:06:54.383Z,101326.66
2017-11-19T11:09:34.704Z,101319.75
2017-11-19T11:12:14.585Z,101322.81
2017-11-19T11:14:50.162Z,101329.34
2017-11-19T11:17:23.773Z,101337.53
2017-11-19T11:20:00.789Z,101333.30
2017-11-19T11:22:34.104Z,101335.09
2017-11-19T11:25:13.219Z,101337.53
2017-11-19T11:27:47.597Z,101339.58
2017-11-19T11:30:25.874Z,101337.22
2017-11-19T11:33:01.600Z,101344.83
2017-11-19T11:35:33.135Z,101349.41
2017-11-19T11:38:14.892Z,101339.51
2017-11-19T11:40:48.820Z,101343.45
2017-11-19T11:43:22.484Z,101334.81
2017-11-19T11:45:56.608Z,101333.83
2017-11-19T11:48:29.596Z,101334.23
2017-11-19T11:51:02.485Z,101326.23
2017-11-19T11:53:33.320Z,101327.28
2017-11-19T11:59:02.221Z,101335.82
2017-11-19T12:01:42.200Z,101330.73
2017-11-19T12:04:21.103Z,101326.84
2017-11-19T12:06:52.132Z,101326.50
2017-11-19T12:09:24.758Z,101324.16
2017-11-19T12:12:01.011Z,101324.31
2017-11-19T12:14:34.305Z,101324.31
2017-11-19T12:17:07.761Z,101330.41
2017-11-19T12:19:41.231Z,101330.83
2017-11-19T12:22:15.828Z,101330.50
2017-11-19T12:24:49.242Z,101326.30
2017-11-19T12:27:23.428Z,101328.92
2017-11-19T12:29:56.108Z,101325.02
2017-11-19T12:32:27.474Z,101334.56
2017-11-19T12:35:01.843Z,101334.84
2017-11-19T12:37:36.231Z,101337.21
2017-11-19T12:40:20.199Z,101338.35
2017-11-19T12:42:52.934Z,101342.48
2017-11-19T12:45:27.665Z,101344.98
2017-11-19T12:48:03.072Z,101341.12
2017-11-19T12:50:36.550Z,101348.20
2017-11-19T12:53:09.350Z,101349.66
2017-11-19T12:55:44.859Z,101354.64
2017-11-19T12:58:19.354Z,101352.47
2017-11-19T13:00:56.776Z,101349.39
2017-11-19T13:03:31.263Z,101354.02
2017-11-19T13:06:06.004Z,101349.80
2017-11-19T13:08:41.586Z,101346.10
2017-11-19T13:11:16.370Z,101343.22
2017-11-19T13:13:50.570Z,101338.89
2017-11-19T13:16:22.137Z,101339.28
2017-11-19T13:18:55.380Z,101332.52
2017-11-19T13:21:28.686Z,101338.73
2017-11-19T13:24:00.887Z,101344.34
2017-11-19T13:26:33.975Z,101335.16
2017-11-19T13:29:10.159Z,101324.90
2017-11-19T13:31:45.083Z,101327.78
2017-11-19T13:34:20.089Z,101343.25
2017-11-19T13:39:39.744Z,101344.23
2017-11-19T13:42:14.877Z,101340.94
2017-11-19T13:44:51.992Z,101331.55
2017-11-19T13:47:26.228Z,101328.27
2017-11-19T13:50:02.291Z,101326.34
2017-11-19T13:52:41.172Z,101337.73
2017-11-19T13:55:13.684Z,101347.72
2017-11-19T13:57:59.246Z,101346.61
2017-11-19T14:00:31.068Z,101352.18
2017-11-19T14:03:05.697Z,101345.88
2017-11-19T14:05:37.616Z,101352.58
2017-11-19T14:08:07.893Z,101353.48
2017-11-19T14:10:43.283Z,101359.78
2017-11-19T14:13:29.983Z,101359.03
2017-11-19T14:16:06.212Z,101355.78
2017-11-19T14:18:39.382Z,101363.64
2017-11-19T14:21:14.406Z,101367.93
2017-11-19T14:23:51.612Z,101364.22
2017-11-19T14:26:23.511Z,101361.83
2017-11-19T14:28:56.402Z,101377.86
2017-11-19T14:31:34.590Z,101379.02
2017-11-19T14:34:10.956Z,101384.41
2017-11-19T14:36:46.302Z,101397.19
2017-11-19T14:39:20.419Z,101409.25
2017-11-19T14:41:54.511Z,101422.43
2017-11-19T14:44:35.109Z,101415.14
2017-11-19T14:47:09.953Z,101412.35
2017-11-19T14:49:42.063Z,101411.17
2017-11-19T14:52:15.054Z,101417.17
2017-11-19T14:57:43.556Z,101444.89
2017-11-19T15:00:22.101Z,101408.15
2017-11-19T15:02:55.633Z,101411.64
2017-11-19T15:05:28.819Z,101420.48
2017-11-19T15:08:05.021Z,101425.09
2017-11-19T15:13:26.180Z,101421.69
2017-11-19T15:18:44.280Z,101421.98
2017-11-19T15:21:20.341Z,101424.13
2017-11-19T15:23:58.709Z,101420.99
2017-11-19T15:26:41.294Z,101418.57
2017-11-19T15:29:15.161Z,101428.59
2017-11-19T15:31:50.467Z,101418.14
2017-11-19T15:34:26.477Z,101421.50
2017-11-19T15:37:00.523Z,101420.78
2017-11-19T15:39:34.451Z,101428.17
2017-11-19T15:42:11.623Z,101430.48
2017-11-19T15:44:47.926Z,101431.84
2017-11-19T15:47:21.317Z,101435.67
2017-11-19T15:52:35.695Z,101440.28
2017-11-19T15:55:13.405Z,101433.63
2017-11-19T16:00:32.915Z,101432.52
2017-11-19T16:03:08.229Z,101447.21
2017-11-19T16:05:42.707Z,101446.28
2017-11-19T16:08:21.206Z,101452.05
2017-11-19T16:11:05.168Z,101448.66
2017-11-19T16:14:08.226Z,101452.48
2017-11-19T16:16:44.933Z,101451.90
2017-11-19T16:19:20.671Z,101460.02
2017-11-19T16:22:02.299Z,101458.22
2017-11-19T16:24:38.253Z,101460.48
2017-11-19T16:27:15.122Z,101447.13
2017-11-19T16:29:48.392Z,101458.41
2017-11-19T16:32:30.574Z,101461.63
2017-11-19T16:35:02.376Z,101456.84
2017-11-19T16:37:35.884Z,101462.26
2017-11-19T16:40:12.383Z,101473.27
2017-11-19T16:42:44.911Z,101477.37
2017-11-19T16:45:18.608Z,101467.40
2017-11-19T16:47:56.953Z,101481.00
2017-11-19T16:50:33.148Z,101496.75
2017-11-19T16:53:16.443Z,101487.61
2017-11-19T16:56:04.017Z,101489.74
2017-11-19T16:58:37.654Z,101489.89
2017-11-19T17:01:15.466Z,101486.97
2017-11-19T17:06:29.544Z,101501.44
2017-11-19T17:09:04.074Z,101504.33
2017-11-19T17:11:38.486Z,101506.47
2017-11-19T17:14:12.358Z,101504.09
2017-11-19T17:16:45.854Z,101512.68
2017-11-19T17:19:20.153Z,101525.09
2017-11-19T17:21:53.222Z,101517.31
2017-11-19T17:24:30.919Z,101517.40
2017-11-19T17:27:06.047Z,101518.16
2017-11-19T17:29:38.652Z,101533.36
2017-11-19T17:32:20.839Z,101545.52
2017-11-19T17:34:57.572Z,101559.48
2017-11-19T17:37:34.457Z,101567.36
2017-11-19T17:40:11.956Z,101550.41
2017-11-19T17:42:48.055Z,101555.45
2017-11-19T17:45:21.657Z,101549.77
2017-11-19T17:47:58.368Z,101555.11
2017-11-19T17:50:30.566Z,101562.41
2017-11-19T17:53:02.336Z,101559.46
2017-11-19T17:55:34.417Z,101548.35
2017-11-19T17:58:09.261Z,101558.91
2017-11-19T18:00:40.250Z,101554.09
2017-11-19T18:03:13.950Z,101554.88
2017-11-19T18:05:47.036Z,101558.56
2017-11-19T18:08:25.677Z,101556.56
2017-11-19T18:10:56.453Z,101558.42
2017-11-19T18:13:29.348Z,101557.59
2017-11-19T18:16:01.563Z,101562.87
2017-11-19T18:18:35.891Z,101551.09
2017-11-19T18:21:11.263Z,101552.44
2017-11-19T18:23:48.616Z,101556.76
2017-11-19T18:26:20.432Z,101557.09
2017-11-19T18:28:53.850Z,101564.55
2017-11-19T18:31:28.156Z,101563.38
2017-11-19T18:34:08.750Z,101558.51
2017-11-19T18:36:44.070Z,101571.99
2017-11-19T18:39:19.204Z,101576.89
2017-11-19T18:41:55.429Z,101569.23
2017-11-19T18:44:32.212Z,101569.86
2017-11-19T18:47:05.331Z,101566.33
2017-11-19T18:49:42.612Z,101570.21
2017-11-19T18:52:15.753Z,101576.78
2017-11-19T18:55:04.648Z,101573.58
2017-11-19T19:00:35.841Z,101583.27
2017-11-19T19:03:13.247Z,101587.75
2017-11-19T19:05:56.519Z,101586.34
2017-11-19T19:08:32.724Z,101589.41
2017-11-19T19:11:09.152Z,101585.91
2017-11-19T19:13:43.038Z,101588.50
2017-11-19T19:16:15.842Z,101590.02
2017-11-19T19:18:50.449Z,101596.77
2017-11-19T19:21:28.398Z,101599.10
2017-11-19T19:24:08.952Z,101593.81
2017-11-19T19:26:45.103Z,101590.44
2017-11-19T19:29:19.551Z,101588.71
2017-11-19T19:32:04.994Z,101598.02
2017-11-19T19:34:39.077Z,101595.79
2017-11-19T19:37:33.461Z,101592.70
2017-11-19T19:40:19.094Z,101604.55
2017-11-19T19:43:17.293Z,101610.55
2017-11-19T19:46:07.488Z,101612.55
2017-11-19T19:48:40.866Z,101613.16
2017-11-19T19:51:13.357Z,101624.80
2017-11-19T19:53:45.160Z,101623.03
2017-11-19T19:56:24.902Z,101634.23
2017-11-19T19:59:00.188Z,101631.94
2017-11-19T20:01:39.690Z,101634.72
2017-11-19T20:04:11.187Z,101639.47
2017-11-19T20:07:27.523Z,101634.88
2017-11-19T20:10:08.671Z,101653.99
2017-11-19T20:12:42.762Z,101661.31
2017-11-19T20:15:40.161Z,101667.55
2017-11-19T20:18:38.657Z,101680.16
2017-11-19T20:21:16.174Z,101669.88
2017-11-19T20:23:56.947Z,101673.77
2017-11-19T20:26:30.069Z,101671.20
2017-11-19T20:29:09.880Z,101673.89
2017-11-19T20:31:45.662Z,101674.45
2017-11-19T20:34:17.013Z,101674.77
2017-11-19T20:36:56.374Z,101679.81
2017-11-19T20:39:28.620Z,101679.72
2017-11-19T20:42:03.720Z,101679.23
2017-11-19T20:44:38.072Z,101689.09
2017-11-19T20:47:10.575Z,101681.36
2017-11-19T20:49:44.989Z,101692.28
2017-11-19T20:52:19.284Z,101688.23
2017-11-19T20:54:52.989Z,101692.70
2017-11-19T20:57:26.886Z,101692.73
2017-11-19T20:59:59.027Z,101696.47
2017-11-19T21:02:34.662Z,101693.55
2017-11-19T21:05:11.889Z,101695.30
2017-11-19T21:10:34.682Z,101692.53
2017-11-19T21:13:06.585Z,101699.22
2017-11-19T21:15:40.207Z,101701.73
2017-11-19T21:18:20.874Z,101707.34
2017-11-19T21:20:55.402Z,101705.03
2017-11-19T21:23:30.819Z,101707.25
2017-11-19T21:26:09.512Z,101671.01
2017-11-19T21:28:44.978Z,101715.52
2017-11-19T21:31:17.882Z,101714.97
2017-11-19T21:33:58.337Z,101722.12
2017-11-19T21:36:31.952Z,101717.78
2017-11-19T21:41:31.802Z,101722.38
2017-11-19T21:44:03.845Z,101724.55
2017-11-19T21:46:35.704Z,101730.03
2017-11-19T21:49:19.911Z,101728.67
2017-11-19T21:51:54.341Z,101716.89
2017-11-19T21:54:25.995Z,101721.25
2017-11-19T21:57:03.179Z,101717.44
2017-11-19T21:59:39.083Z,101715.26
2017-11-19T22:02:15.244Z,101711.37
2017-11-19T22:04:50.439Z,101715.22
2017-11-19T22:07:23.085Z,101717.74
2017-11-19T22:09:54.915Z,101707.47
2017-11-19T22:12:25.521Z,101716.16
2017-11-19T22:14:56.283Z,101720.63
2017-11-19T22:17:29.208Z,101722.84
2017-11-19T22:20:27.869Z,101721.20
2017-11-19T22:23:03.499Z,101728.02
2017-11-19T22:25:34.781Z,101721.00
2017-11-19T22:28:12.320Z,101717.48
2017-11-19T22:31:03.780Z,101709.22
2017-11-19T22:34:05.015Z,101714.28
2017-11-19T22:36:48.767Z,101710.95
2017-11-19T22:39:23.513Z,101706.88
2017-11-19T22:41:55.689Z,101716.98
2017-11-19T22:47:16.743Z,101717.84
2017-11-19T22:49:48.419Z,101717.10
2017-11-19T22:52:20.924Z,101716.59
2017-11-19T22:54:55.986Z,101718.04
2017-11-19T22:57:33.021Z,101719.20
2017-11-19T23:00:09.542Z,101722.97
2017-11-19T23:02:42.554Z,101728.53
2017-11-19T23:05:18.035Z,101721.21
2017-11-19T23:07:50.468Z,101717.91
2017-11-19T23:10:23.650Z,101712.91
2017-11-19T23:12:56.736Z,101715.56
2017-11-19T23:15:39.842Z,101717.66
2017-11-19T23:18:18.487Z,101717.27
2017-11-19T23:20:53.250Z,101724.64
2017-11-19T23:23:26.132Z,101709.44
2017-11-19T23:26:05.553Z,101707.30
2017-11-19T23:28:42.942Z,101709.73
2017-11-19T23:31:18.025Z,101705.80
2017-11-19T23:33:50.116Z,101710.05
2017-11-19T23:36:23.275Z,101703.05
2017-11-19T23:38:57.777Z,101700.80
2017-11-19T23:41:29.484Z,101694.42
2017-11-19T23:44:10.688Z,101702.59
2017-11-19T23:46:43.232Z,101703.45
2017-11-19T23:49:15.546Z,101700.41
2017-11-19T23:51:48.103Z,101705.46
2017-11-19T23:54:19.900Z,101695.73
2017-11-19T23:56:53.020Z,101693.30
2017-11-19T23:59:26.246Z,101694.87
